createdAt,value
2022-09-15T00:00:35.241Z,16.7
2022-09-15T00:02:29.603Z,16.6
2022-09-15T00:04:35.392Z,16.6
2022-09-15T00:06:34.026Z,16.6
2022-09-15T00:08:32.868Z,16.6
2022-09-15T00:10:34.941Z,16.6
2022-09-15T00:12:35.004Z,16.7
2022-09-15T00:14:31.689Z,16.7
2022-09-15T00:16:35.478Z,16.6
2022-09-15T00:18:32.243Z,16.8
2022-09-15T00:20:29.888Z,16.7
2022-09-15T00:22:31.783Z,16.7
2022-09-15T00:24:34.386Z,16.7
2022-09-15T00:26:30.573Z,16.6
2022-09-15T00:28:32.409Z,16.7
2022-09-15T00:30:34.918Z,16.6
2022-09-15T00:32:34.578Z,16.7
2022-09-15T00:34:33.708Z,16.6
2022-09-15T00:36:35.224Z,16.6
2022-09-15T00:38:32.475Z,16.5
2022-09-15T00:40:33.288Z,16.5
2022-09-15T00:42:29.540Z,16.5
2022-09-15T00:44:34.637Z,16.5
2022-09-15T00:46:35.294Z,16.5
2022-09-15T00:48:35.502Z,16.5
2022-09-15T00:50:30.797Z,16.5
2022-09-15T00:52:34.396Z,16.5
2022-09-15T00:54:34.996Z,16.5
2022-09-15T00:56:29.510Z,16.5
2022-09-15T00:58:34.090Z,16.5
2022-09-15T01:00:34.613Z,16.5
2022-09-15T01:02:31.004Z,16.6
2022-09-15T01:04:34.954Z,16.6
2022-09-15T01:06:34.121Z,16.6
2022-09-15T01:08:33.662Z,16.7
2022-09-15T01:10:33.658Z,16.7
2022-09-15T01:12:33.861Z,16.7
2022-09-15T01:14:35.575Z,16.8
2022-09-15T01:16:29.693Z,16.8
2022-09-15T01:20:34.894Z,16.8
2022-09-15T01:22:31.211Z,16.8
2022-09-15T01:24:30.999Z,16.8
2022-09-15T01:26:34.635Z,16.8
2022-09-15T01:28:29.458Z,16.8
2022-09-15T01:30:29.524Z,16.9
2022-09-15T01:32:34.912Z,16.9
2022-09-15T01:34:32.348Z,16.9
2022-09-15T01:36:31.082Z,17
2022-09-15T01:38:35.066Z,17
2022-09-15T01:40:35.004Z,17
2022-09-15T01:42:34.090Z,16.9
2022-09-15T01:44:31.245Z,16.9
2022-09-15T01:46:29.514Z,16.8
2022-09-15T01:48:34.168Z,16.8
2022-09-15T01:50:35.046Z,16.8
2022-09-15T01:52:31.413Z,16.8
2022-09-15T01:54:34.876Z,16.7
2022-09-15T01:56:34.974Z,16.7
2022-09-15T01:58:33.819Z,16.7
2022-09-15T02:00:31.486Z,16.7
2022-09-15T02:02:33.252Z,16.7
2022-09-15T02:04:33.793Z,16.7
2022-09-15T02:06:34.539Z,16.7
2022-09-15T02:08:29.488Z,16.7
2022-09-15T02:10:35.465Z,16.7
2022-09-15T02:12:35.130Z,16.6
2022-09-15T02:14:35.802Z,16.6
2022-09-15T02:16:33.076Z,16.6
2022-09-15T02:18:34.795Z,16.6
2022-09-15T02:20:29.480Z,16.6
2022-09-15T02:22:33.750Z,16.6
2022-09-15T02:24:32.796Z,16.6
2022-09-15T02:26:34.181Z,16.6
2022-09-15T02:28:29.534Z,16.6
2022-09-15T02:30:29.512Z,16.6
2022-09-15T02:32:35.829Z,16.6
2022-09-15T02:34:29.502Z,16.6
2022-09-15T02:36:35.819Z,16.7
2022-09-15T02:38:33.984Z,16.6
2022-09-15T02:40:31.503Z,16.6
2022-09-15T02:42:35.472Z,16.6
2022-09-15T02:44:33.098Z,16.6
2022-09-15T02:46:29.540Z,16.6
2022-09-15T02:48:35.883Z,16.6
2022-09-15T02:50:31.106Z,16.7
2022-09-15T02:52:35.853Z,16.7
2022-09-15T02:54:33.743Z,16.7
2022-09-15T02:56:35.334Z,16.7
2022-09-15T02:58:29.452Z,16.6
2022-09-15T03:00:35.121Z,16.6
2022-09-15T03:02:29.445Z,16.6
2022-09-15T03:04:29.404Z,16.6
2022-09-15T03:06:35.254Z,16.6
2022-09-15T03:08:36.049Z,16.6
2022-09-15T03:10:29.403Z,16.7
2022-09-15T03:12:34.628Z,16.7
2022-09-15T03:14:33.345Z,16.7
2022-09-15T03:16:30.716Z,16.7
2022-09-15T03:18:31.786Z,16.7
2022-09-15T03:20:35.190Z,16.6
2022-09-15T03:22:33.916Z,16.7
2022-09-15T03:24:33.078Z,16.7
2022-09-15T03:26:29.627Z,16.7
2022-09-15T03:28:32.804Z,16.7
2022-09-15T03:30:32.911Z,16.7
2022-09-15T03:32:29.393Z,16.7
2022-09-15T03:34:29.619Z,16.7
2022-09-15T03:36:34.139Z,16.7
2022-09-15T03:38:29.552Z,16.7
2022-09-15T03:40:32.993Z,16.6
2022-09-15T03:42:31.513Z,16.7
2022-09-15T03:44:30.713Z,16.6
2022-09-15T03:46:29.393Z,16.7
2022-09-15T03:48:29.422Z,16.6
2022-09-15T03:50:29.416Z,16.5
2022-09-15T03:54:29.421Z,16.4
2022-09-15T03:56:34.621Z,16.4
2022-09-15T03:58:36.503Z,16.5
2022-09-15T04:00:35.517Z,16.4
2022-09-15T04:02:35.780Z,16.4
2022-09-15T04:04:32.645Z,16.2
2022-09-15T04:06:33.323Z,16.3
2022-09-15T04:08:30.908Z,16.2
2022-09-15T04:10:32.608Z,16.2
2022-09-15T04:12:30.912Z,16.2
2022-09-15T04:14:35.689Z,16.2
2022-09-15T04:16:35.421Z,16.2
2022-09-15T04:18:35.371Z,16.1
2022-09-15T04:20:35.393Z,16.1
2022-09-15T04:22:32.276Z,16.1
2022-09-15T04:24:34.996Z,16.1
2022-09-15T04:26:36.329Z,16.1
2022-09-15T04:28:34.984Z,16.1
2022-09-15T04:30:34.822Z,16.1
2022-09-15T04:32:31.321Z,16.1
2022-09-15T04:34:38.102Z,16.1
2022-09-15T04:36:32.771Z,16.2
2022-09-15T04:38:29.452Z,16.1
2022-09-15T04:40:32.769Z,16.2
2022-09-15T04:42:36.766Z,16.1
2022-09-15T04:44:33.031Z,16.1
2022-09-15T04:46:36.034Z,16.1
2022-09-15T04:48:34.984Z,15.9
2022-09-15T04:50:29.352Z,16
2022-09-15T04:52:32.619Z,16
2022-09-15T04:54:33.851Z,16
2022-09-15T04:58:29.435Z,16
2022-09-15T05:00:35.458Z,16
2022-09-15T05:02:29.417Z,16.1
2022-09-15T05:04:32.764Z,16.1
2022-09-15T05:06:31.275Z,16.2
2022-09-15T05:08:34.105Z,16.2
2022-09-15T05:10:29.504Z,16.2
2022-09-15T05:14:35.840Z,16.2
2022-09-15T05:16:29.556Z,16.3
2022-09-15T05:18:33.488Z,16.3
2022-09-15T05:20:35.359Z,16.3
2022-09-15T05:22:41.022Z,16.3
2022-09-15T05:24:36.203Z,16.4
2022-09-15T05:26:34.097Z,16.4
2022-09-15T05:28:32.046Z,16.4
2022-09-15T05:30:37.993Z,16.5
2022-09-15T05:32:35.760Z,16.4
2022-09-15T05:34:37.081Z,16.5
2022-09-15T05:36:35.711Z,16.5
2022-09-15T05:38:34.383Z,16.6
2022-09-15T05:40:32.614Z,16.6
2022-09-15T05:42:31.300Z,16.7
2022-09-15T05:44:36.783Z,16.7
2022-09-15T05:46:37.089Z,16.7
2022-09-15T05:48:33.036Z,16.8
2022-09-15T05:50:34.506Z,16.8
2022-09-15T05:52:31.198Z,16.8
2022-09-15T05:56:29.442Z,16.8
2022-09-15T05:58:32.045Z,16.9
2022-09-15T06:00:35.226Z,17
2022-09-15T06:02:35.740Z,17
2022-09-15T06:04:34.719Z,17
2022-09-15T06:06:34.458Z,16.9
2022-09-15T06:08:35.192Z,16.9
2022-09-15T06:10:32.776Z,16.9
2022-09-15T06:12:35.825Z,16.9
2022-09-15T06:14:29.858Z,16.9
2022-09-15T06:16:35.457Z,17
2022-09-15T06:18:33.983Z,17
2022-09-15T06:20:33.816Z,17.1
2022-09-15T06:22:36.166Z,17
2022-09-15T06:24:31.716Z,17
2022-09-15T06:26:35.958Z,17
2022-09-15T06:28:34.446Z,17.1
2022-09-15T06:30:29.428Z,17.1
2022-09-15T06:32:35.781Z,17
2022-09-15T06:34:32.646Z,17.1
2022-09-15T06:36:31.334Z,17.2
2022-09-15T06:38:31.271Z,17.2
2022-09-15T06:40:35.402Z,17.2
2022-09-15T06:42:31.286Z,17.3
2022-09-15T06:44:32.682Z,17.3
2022-09-15T06:46:35.832Z,17.4
2022-09-15T06:48:32.679Z,17.4
2022-09-15T06:50:33.739Z,17.4
2022-09-15T06:52:29.505Z,17.3
2022-09-15T06:54:36.243Z,17.3
2022-09-15T06:56:37.157Z,17.3
2022-09-15T06:58:36.207Z,17.3
2022-09-15T07:00:35.733Z,17.2
2022-09-15T07:02:35.122Z,17.3
2022-09-15T07:04:33.417Z,17.3
2022-09-15T07:06:33.219Z,17.3
2022-09-15T07:08:33.737Z,17.3
2022-09-15T07:10:31.371Z,17.3
2022-09-15T07:12:29.927Z,17.3
2022-09-15T07:14:36.198Z,17.4
2022-09-15T07:16:32.915Z,17.7
2022-09-15T07:18:41.037Z,17.7
2022-09-15T07:20:35.463Z,17.6
2022-09-15T07:22:31.632Z,17.6
2022-09-15T07:24:29.934Z,17.7
2022-09-15T07:26:34.129Z,17.8
2022-09-15T07:28:32.737Z,17.7
2022-09-15T07:30:35.234Z,17.8
2022-09-15T07:34:29.443Z,17.6
2022-09-15T07:36:31.461Z,17.6
2022-09-15T07:38:35.403Z,17.5
2022-09-15T07:40:31.477Z,17.5
2022-09-15T07:42:35.494Z,17.6
2022-09-15T07:44:35.378Z,17.6
2022-09-15T07:46:30.548Z,17.5
2022-09-15T07:48:33.998Z,17.5
2022-09-15T07:50:30.885Z,17.6
2022-09-15T07:52:32.692Z,17.6
2022-09-15T07:54:33.065Z,17.8
2022-09-15T07:56:32.042Z,17.7
2022-09-15T07:58:36.037Z,17.7
2022-09-15T08:00:35.863Z,17.8
2022-09-15T08:02:35.791Z,17.7
2022-09-15T08:04:36.881Z,17.7
2022-09-15T08:06:30.314Z,17.7
2022-09-15T08:08:36.104Z,17.6
2022-09-15T08:10:34.973Z,17.6
2022-09-15T08:12:36.707Z,17.7
2022-09-15T08:14:36.640Z,17.7
2022-09-15T08:16:30.414Z,17.8
2022-09-15T08:18:31.354Z,17.9
2022-09-15T08:20:35.632Z,18
2022-09-15T08:22:30.954Z,18.1
2022-09-15T08:24:35.057Z,18.2
2022-09-15T08:26:33.112Z,18.2
2022-09-15T08:28:34.512Z,18.3
2022-09-15T08:30:31.455Z,18.3
2022-09-15T08:32:29.586Z,18.3
2022-09-15T08:34:31.637Z,18.6
2022-09-15T08:36:36.165Z,18.4
2022-09-15T08:38:35.152Z,18.3
2022-09-15T08:40:35.081Z,18.4
2022-09-15T08:42:36.288Z,18.2
2022-09-15T08:44:32.465Z,18.2
2022-09-15T08:46:33.373Z,18.2
2022-09-15T08:48:34.335Z,18.4
2022-09-15T08:50:36.356Z,18.2
2022-09-15T08:52:29.985Z,18.4
2022-09-15T08:54:34.247Z,18.4
2022-09-15T08:56:31.182Z,18.4
2022-09-15T08:58:32.113Z,18.5
2022-09-15T09:00:34.568Z,18.5
2022-09-15T09:02:31.168Z,18.6
2022-09-15T09:04:36.261Z,18.6
2022-09-15T09:06:29.711Z,18.7
2022-09-15T09:08:35.371Z,18.8
2022-09-15T09:10:29.990Z,18.8
2022-09-15T09:12:34.614Z,19.1
2022-09-15T09:14:36.461Z,19.2
2022-09-15T09:16:31.096Z,19.2
2022-09-15T09:18:34.250Z,19
2022-09-15T09:20:35.930Z,19
2022-09-15T09:22:35.553Z,19.1
2022-09-15T09:24:35.077Z,19.1
2022-09-15T09:26:35.649Z,19.8
2022-09-15T09:28:31.083Z,19.8
2022-09-15T09:30:36.669Z,19.7
2022-09-15T09:32:35.883Z,19.7
2022-09-15T09:34:34.962Z,19.6
2022-09-15T09:36:34.612Z,19.7
2022-09-15T09:38:33.287Z,19.6
2022-09-15T09:40:34.570Z,19.5
2022-09-15T09:42:36.421Z,19.3
2022-09-15T09:44:29.688Z,19.1
2022-09-15T09:46:29.740Z,19.1
2022-09-15T09:48:35.133Z,19.1
2022-09-15T09:50:31.814Z,19.1
2022-09-15T09:52:34.279Z,19.1
2022-09-15T09:54:35.486Z,19.2
2022-09-15T09:56:33.227Z,19.5
2022-09-15T09:58:31.560Z,19.7
2022-09-15T10:00:37.275Z,20
2022-09-15T10:02:35.912Z,20.2
2022-09-15T10:04:36.461Z,20.2
2022-09-15T10:06:35.593Z,20.3
2022-09-15T10:08:34.229Z,20.2
2022-09-15T10:10:31.007Z,19.8
2022-09-15T10:12:32.124Z,19.6
2022-09-15T10:14:35.677Z,19.4
2022-09-15T10:16:33.018Z,19.1
2022-09-15T10:18:35.786Z,19.1
2022-09-15T10:20:33.021Z,19
2022-09-15T10:22:35.198Z,19.1
2022-09-15T10:24:36.858Z,19.2
2022-09-15T10:26:29.660Z,19.1
2022-09-15T10:28:34.780Z,19.2
2022-09-15T10:30:36.030Z,19.1
2022-09-15T10:32:31.778Z,19.2
2022-09-15T10:34:35.956Z,19.1
2022-09-15T10:36:31.666Z,18.8
2022-09-15T10:38:34.247Z,18.7
2022-09-15T10:40:35.453Z,18.6
2022-09-15T10:42:30.029Z,18.6
2022-09-15T10:44:36.155Z,18.7
2022-09-15T10:46:29.740Z,19
2022-09-15T10:48:33.789Z,19.3
2022-09-15T10:50:35.921Z,19.6
2022-09-15T10:52:32.829Z,19.8
2022-09-15T10:54:36.245Z,20
2022-09-15T10:56:29.671Z,19.9
2022-09-15T10:58:36.068Z,19.6
2022-09-15T11:00:35.632Z,19.6
2022-09-15T11:02:31.622Z,19.3
2022-09-15T11:04:31.547Z,19.3
2022-09-15T11:06:36.212Z,19.3
2022-09-15T11:08:33.145Z,19.7
2022-09-15T11:10:35.638Z,19.6
2022-09-15T11:12:35.199Z,19.9
2022-09-15T11:14:32.901Z,20
2022-09-15T11:16:33.018Z,19.9
2022-09-15T11:18:34.159Z,20.2
2022-09-15T11:20:34.955Z,20.2
2022-09-15T11:22:34.886Z,20.3
2022-09-15T11:24:36.234Z,20.3
2022-09-15T11:26:36.490Z,20.3
2022-09-15T11:28:31.103Z,20.3
2022-09-15T11:30:33.502Z,20.3
2022-09-15T11:34:36.068Z,20.3
2022-09-15T11:36:32.955Z,20.2
2022-09-15T11:38:35.445Z,19.9
2022-09-15T11:40:35.204Z,19.6
2022-09-15T11:42:35.156Z,19.2
2022-09-15T11:44:32.827Z,19.1
2022-09-15T11:46:33.411Z,18.9
2022-09-15T11:48:33.016Z,18.9
2022-09-15T11:50:33.167Z,19
2022-09-15T11:52:33.034Z,19.4
2022-09-15T11:54:31.458Z,20
2022-09-15T11:56:29.721Z,20
2022-09-15T11:58:36.080Z,20
2022-09-15T12:00:34.808Z,19.7
2022-09-15T12:02:35.235Z,19.5
2022-09-15T12:04:29.696Z,19.5
2022-09-15T12:06:31.577Z,19.8
2022-09-15T12:08:36.342Z,19.8
2022-09-15T12:10:34.728Z,19.7
2022-09-15T12:12:34.757Z,19.8
2022-09-15T12:14:33.804Z,19.8
2022-09-15T12:16:29.695Z,19.8
2022-09-15T12:18:39.195Z,19.7
2022-09-15T12:20:36.143Z,19.6
2022-09-15T12:22:33.360Z,19.6
2022-09-15T12:24:31.587Z,19.6
2022-09-15T12:26:29.701Z,19.7
2022-09-15T12:28:32.935Z,19.7
2022-09-15T12:30:34.736Z,19.9
2022-09-15T12:32:29.716Z,20.3
2022-09-15T12:34:29.639Z,20.3
2022-09-15T12:36:33.414Z,20.3
2022-09-15T12:38:31.184Z,20.3
2022-09-15T12:40:31.623Z,20.4
2022-09-15T12:42:35.934Z,20.4
2022-09-15T12:44:31.184Z,20.4
2022-09-15T12:46:36.184Z,20.5
2022-09-15T12:48:32.807Z,20.5
2022-09-15T12:50:35.784Z,20.6
2022-09-15T12:52:36.856Z,20.6
2022-09-15T12:54:37.215Z,20.6
2022-09-15T12:56:36.236Z,20.7
2022-09-15T12:58:29.740Z,20.8
2022-09-15T13:00:34.660Z,20.8
2022-09-15T13:02:36.551Z,20.8
2022-09-15T13:04:34.226Z,20.7
2022-09-15T13:06:29.717Z,20.7
2022-09-15T13:08:34.222Z,20.7
2022-09-15T13:10:36.890Z,20.7
2022-09-15T13:12:29.693Z,20.4
2022-09-15T13:14:34.522Z,20.2
2022-09-15T13:16:32.859Z,19.8
2022-09-15T13:18:31.577Z,18.5
2022-09-15T13:20:30.718Z,17.4
2022-09-15T13:22:31.601Z,16.9
2022-09-15T13:24:32.733Z,17
2022-09-15T13:26:37.223Z,17.1
2022-09-15T13:28:34.358Z,17
2022-09-15T13:30:35.596Z,16.6
2022-09-15T13:32:32.908Z,16.4
2022-09-15T13:35:11.597Z,16.4
2022-09-15T13:38:37.025Z,16.5
2022-09-15T13:40:33.257Z,16.5
2022-09-15T13:42:33.857Z,16.5
2022-09-15T13:44:29.705Z,16.4
2022-09-15T13:46:35.711Z,16.5
2022-09-15T13:48:35.586Z,16.4
2022-09-15T13:50:31.560Z,16.2
2022-09-15T13:52:37.270Z,16.2
2022-09-15T13:54:36.454Z,15.6
2022-09-15T13:56:36.571Z,15.5
2022-09-15T13:59:00.750Z,15.3
2022-09-15T14:00:32.950Z,15.2
2022-09-15T14:02:33.912Z,15
2022-09-15T14:04:35.805Z,15.1
2022-09-15T14:06:36.463Z,15.1
2022-09-15T14:08:33.554Z,15.2
2022-09-15T14:10:32.903Z,15.2
2022-09-15T14:12:33.783Z,15.2
2022-09-15T14:14:35.687Z,15.6
2022-09-15T14:16:34.113Z,15.8
2022-09-15T14:18:29.700Z,15.6
2022-09-15T14:20:35.189Z,15.8
2022-09-15T14:22:34.949Z,15.8
2022-09-15T14:24:35.570Z,15.7
2022-09-15T14:26:36.884Z,15.6
2022-09-15T14:28:31.766Z,15.3
2022-09-15T14:32:34.577Z,15.1
2022-09-15T14:34:29.779Z,15.1
2022-09-15T14:36:35.651Z,15.2
2022-09-15T14:38:29.810Z,15.2
2022-09-15T14:40:37.284Z,15.2
2022-09-15T14:42:34.214Z,15
2022-09-15T14:46:31.541Z,14.8
2022-09-15T14:48:31.572Z,14.9
2022-09-15T14:50:32.456Z,15
2022-09-15T14:52:35.671Z,14.9
2022-09-15T14:54:33.736Z,14.8
2022-09-15T14:56:35.919Z,14.7
2022-09-15T14:58:34.218Z,14.7
2022-09-15T15:00:32.628Z,14.7
2022-09-15T15:02:32.537Z,14.6
2022-09-15T15:04:29.302Z,14.5
2022-09-15T15:06:35.158Z,14.5
2022-09-15T15:08:29.518Z,14.7
2022-09-15T15:10:33.567Z,14.8
2022-09-15T15:12:29.298Z,14.9
2022-09-15T15:14:32.214Z,15
2022-09-15T15:16:33.154Z,14.9
2022-09-15T15:18:30.967Z,14.8
2022-09-15T15:20:35.740Z,14.9
2022-09-15T15:22:29.501Z,14.7
2022-09-15T15:24:29.304Z,14.9
2022-09-15T15:26:29.471Z,15
2022-09-15T15:28:34.278Z,14.9
2022-09-15T15:30:31.708Z,14.8
2022-09-15T15:32:35.802Z,14.7
2022-09-15T15:34:29.973Z,14.7
2022-09-15T15:36:33.663Z,14.6
2022-09-15T15:38:29.304Z,14.6
2022-09-15T15:40:29.841Z,14.5
2022-09-15T15:42:29.860Z,14.5
2022-09-15T15:44:36.326Z,14.5
2022-09-15T15:46:31.151Z,14.6
2022-09-15T15:48:31.722Z,14.6
2022-09-15T15:50:35.696Z,14.6
2022-09-15T15:52:29.570Z,14.7
2022-09-15T15:54:33.460Z,14.9
2022-09-15T15:56:29.819Z,14.9
2022-09-15T15:58:30.335Z,15
2022-09-15T16:00:29.421Z,15
2022-09-15T16:02:34.917Z,14.8
2022-09-15T16:04:35.534Z,14.7
2022-09-15T16:06:32.603Z,14.6
2022-09-15T16:08:29.520Z,14.7
2022-09-15T16:10:29.320Z,14.7
2022-09-15T16:12:30.688Z,14.7
2022-09-15T16:14:31.169Z,14.9
2022-09-15T16:18:29.314Z,14.8
2022-09-15T16:20:33.687Z,14.9
2022-09-15T16:22:36.402Z,14.9
2022-09-15T16:24:29.328Z,14.9
2022-09-15T16:26:29.328Z,15
2022-09-15T16:28:32.899Z,14.9
2022-09-15T16:30:34.884Z,15
2022-09-15T16:32:29.325Z,15
2022-09-15T16:34:33.014Z,15.3
2022-09-15T16:36:31.204Z,15.7
2022-09-15T16:38:29.489Z,15.8
2022-09-15T16:40:29.452Z,15.5
2022-09-15T16:42:29.547Z,15.2
2022-09-15T16:44:32.794Z,15
2022-09-15T16:46:35.816Z,15
2022-09-15T16:48:29.759Z,15
2022-09-15T16:50:36.608Z,14.7
2022-09-15T16:52:29.493Z,14.6
2022-09-15T16:54:29.614Z,14.6
2022-09-15T16:56:29.626Z,14.4
2022-09-15T16:58:29.339Z,14.4
2022-09-15T17:00:35.201Z,14.4
2022-09-15T17:02:29.523Z,14.2
2022-09-15T17:04:29.320Z,14.2
2022-09-15T17:06:29.601Z,14.1
2022-09-15T17:08:32.159Z,13.9
2022-09-15T17:10:37.103Z,13.9
2022-09-15T17:12:29.371Z,13.8
2022-09-15T17:14:29.328Z,13.8
2022-09-15T17:16:36.622Z,13.8
2022-09-15T17:18:29.550Z,13.7
2022-09-15T17:20:29.533Z,13.7
2022-09-15T17:22:29.343Z,13.6
2022-09-15T17:24:29.339Z,13.5
2022-09-15T17:28:29.366Z,13.4
2022-09-15T17:30:34.687Z,13.4
2022-09-15T17:32:32.885Z,13.4
2022-09-15T17:34:29.307Z,13.2
2022-09-15T17:36:31.545Z,13.2
2022-09-15T17:38:32.284Z,13.2
2022-09-15T17:40:29.390Z,13.2
2022-09-15T17:42:29.600Z,13.1
2022-09-15T17:44:36.988Z,13.1
2022-09-15T17:46:29.413Z,13.1
2022-09-15T17:48:29.396Z,13.1
2022-09-15T17:50:29.316Z,13
2022-09-15T17:52:34.067Z,13
2022-09-15T17:54:33.982Z,13
2022-09-15T17:56:32.608Z,13
2022-09-15T17:58:33.224Z,12.9
2022-09-15T18:00:29.369Z,12.9
2022-09-15T18:02:37.400Z,12.9
2022-09-15T18:04:29.568Z,12.9
2022-09-15T18:06:35.428Z,12.9
2022-09-15T18:08:36.365Z,12.9
2022-09-15T18:10:29.322Z,12.8
2022-09-15T18:12:31.345Z,12.9
2022-09-15T18:14:29.562Z,12.9
2022-09-15T18:16:29.549Z,12.9
2022-09-15T18:18:29.645Z,12.8
2022-09-15T18:20:31.278Z,12.8
2022-09-15T18:22:31.583Z,12.7
2022-09-15T18:24:35.575Z,12.8
2022-09-15T18:28:31.200Z,12.7
2022-09-15T18:30:29.620Z,12.7
2022-09-15T18:32:29.780Z,12.6
2022-09-15T18:34:30.597Z,12.6
2022-09-15T18:36:29.678Z,12.5
2022-09-15T18:38:29.589Z,12.5
2022-09-15T18:40:29.642Z,12.5
2022-09-15T18:42:35.717Z,12.5
2022-09-15T18:44:29.369Z,12.4
2022-09-15T18:46:29.695Z,12.5
2022-09-15T18:48:29.523Z,12.5
2022-09-15T18:50:29.368Z,12.4
2022-09-15T18:52:29.585Z,12.5
2022-09-15T18:54:29.598Z,12.4
2022-09-15T18:56:31.275Z,12.4
2022-09-15T18:58:29.680Z,12.4
2022-09-15T19:00:29.386Z,12.4
2022-09-15T19:02:29.509Z,12.4
2022-09-15T19:04:32.242Z,12.4
2022-09-15T19:06:31.258Z,12.4
2022-09-15T19:08:35.635Z,12.4
2022-09-15T19:10:33.457Z,12.5
2022-09-15T19:12:29.556Z,12.5
2022-09-15T19:14:34.040Z,12.6
2022-09-15T19:16:40.382Z,12.7
2022-09-15T19:18:36.986Z,12.8
2022-09-15T19:20:29.400Z,12.8
2022-09-15T19:22:29.475Z,12.8
2022-09-15T19:24:29.358Z,12.8
2022-09-15T19:26:36.564Z,12.9
2022-09-15T19:28:29.395Z,12.9
2022-09-15T19:30:29.357Z,12.9
2022-09-15T19:32:29.556Z,12.9
2022-09-15T19:34:29.362Z,12.9
2022-09-15T19:36:31.203Z,12.9
2022-09-15T19:38:35.792Z,12.8
2022-09-15T19:40:29.619Z,12.9
2022-09-15T19:42:29.569Z,12.9
2022-09-15T19:44:31.847Z,12.9
2022-09-15T19:46:35.534Z,12.9
2022-09-15T19:48:39.854Z,12.9
2022-09-15T19:50:29.394Z,12.9
2022-09-15T19:52:31.694Z,12.9
2022-09-15T19:54:36.058Z,12.9
2022-09-15T19:56:29.379Z,13
2022-09-15T19:58:31.722Z,13
2022-09-15T20:00:32.156Z,12.9
2022-09-15T20:02:32.906Z,12.9
2022-09-15T20:04:41.193Z,12.9
2022-09-15T20:06:33.091Z,12.8
2022-09-15T20:08:29.407Z,12.8
2022-09-15T20:10:29.575Z,12.9
2022-09-15T20:14:29.599Z,12.8
2022-09-15T20:16:33.010Z,12.8
2022-09-15T20:18:29.650Z,12.8
2022-09-15T20:20:33.821Z,12.8
2022-09-15T20:22:29.651Z,12.8
2022-09-15T20:24:29.372Z,12.8
2022-09-15T20:26:37.161Z,12.9
2022-09-15T20:28:29.575Z,12.9
2022-09-15T20:30:29.677Z,12.8
2022-09-15T20:32:29.590Z,12.9
2022-09-15T20:34:33.301Z,12.8
2022-09-15T20:36:34.838Z,12.9
2022-09-15T20:38:29.424Z,12.9
2022-09-15T20:40:29.465Z,12.9
2022-09-15T20:42:29.674Z,12.9
2022-09-15T20:44:29.802Z,12.9
2022-09-15T20:46:29.591Z,12.9
2022-09-15T20:48:36.371Z,12.8
2022-09-15T20:50:29.425Z,12.8
2022-09-15T20:52:37.552Z,12.8
2022-09-15T20:54:29.393Z,12.8
2022-09-15T20:56:29.431Z,12.7
2022-09-15T20:58:29.424Z,12.8
2022-09-15T21:00:33.190Z,12.7
2022-09-15T21:02:29.649Z,12.7
2022-09-15T21:04:29.594Z,12.7
2022-09-15T21:06:29.430Z,12.7
2022-09-15T21:10:34.757Z,12.5
2022-09-15T21:12:29.606Z,12.5
2022-09-15T21:14:29.734Z,12.4
2022-09-15T21:16:29.476Z,12.4
2022-09-15T21:18:29.432Z,12.4
2022-09-15T21:20:35.212Z,12.3
2022-09-15T21:22:32.687Z,12.3
2022-09-15T21:24:31.266Z,12.2
2022-09-15T21:26:32.479Z,12.2
2022-09-15T21:28:30.893Z,12.2
2022-09-15T21:30:29.402Z,12.2
2022-09-15T21:32:29.593Z,12.1
2022-09-15T21:34:31.251Z,12.1
2022-09-15T21:36:29.443Z,12.1
2022-09-15T21:38:29.454Z,11.9
2022-09-15T21:40:29.532Z,11.9
2022-09-15T21:42:29.608Z,12
2022-09-15T21:44:32.506Z,11.9
2022-09-15T21:46:29.479Z,12
2022-09-15T21:48:29.613Z,11.9
2022-09-15T21:50:29.417Z,11.9
2022-09-15T21:52:31.661Z,11.9
2022-09-15T21:54:30.991Z,12
2022-09-15T21:56:36.821Z,12
2022-09-15T21:58:41.690Z,12
2022-09-15T22:00:37.114Z,12
2022-09-15T22:02:29.655Z,12
2022-09-15T22:04:29.411Z,12
2022-09-15T22:06:29.613Z,12
2022-09-15T22:08:31.949Z,11.9
2022-09-15T22:10:34.415Z,12
2022-09-15T22:12:29.652Z,11.8
2022-09-15T22:14:36.391Z,11.8
2022-09-15T22:16:29.489Z,11.7
2022-09-15T22:18:29.611Z,11.6
2022-09-15T22:20:31.289Z,11.6
2022-09-15T22:22:29.611Z,11.6
2022-09-15T22:24:29.526Z,11.6
2022-09-15T22:26:29.450Z,11.6
2022-09-15T22:28:37.264Z,11.6
2022-09-15T22:30:29.458Z,11.6
2022-09-15T22:32:29.719Z,11.5
2022-09-15T22:34:29.811Z,11.5
2022-09-15T22:36:30.122Z,11.5
2022-09-15T22:38:29.542Z,11.5
2022-09-15T22:40:31.472Z,11.4
2022-09-15T22:42:29.651Z,11.5
2022-09-15T22:44:31.247Z,11.4
2022-09-15T22:46:31.278Z,11.4
2022-09-15T22:48:29.638Z,11.4
2022-09-15T22:50:29.640Z,11.4
2022-09-15T22:52:35.454Z,11.4
2022-09-15T22:54:29.622Z,11.3
2022-09-15T22:56:29.462Z,11.3
2022-09-15T22:58:29.460Z,11.4
2022-09-15T23:00:29.759Z,11.4
2022-09-15T23:02:34.503Z,11.3
2022-09-15T23:04:29.692Z,11.3
2022-09-15T23:06:36.386Z,11.3
2022-09-15T23:08:29.470Z,11.4
2022-09-15T23:10:29.481Z,11.4
2022-09-15T23:12:29.640Z,11.4
2022-09-15T23:14:29.469Z,11.3
2022-09-15T23:16:29.537Z,11.3
2022-09-15T23:18:29.864Z,11.2
2022-09-15T23:20:29.542Z,11.2
2022-09-15T23:22:29.689Z,11.1
2022-09-15T23:24:29.639Z,11.1
2022-09-15T23:26:29.643Z,11.1
2022-09-15T23:28:31.020Z,11.1
2022-09-15T23:30:29.481Z,11.2
2022-09-15T23:32:36.663Z,11.1
2022-09-15T23:34:33.128Z,11.1
2022-09-15T23:36:29.474Z,11.1
2022-09-15T23:38:34.995Z,11.1
2022-09-15T23:40:35.426Z,11.1
2022-09-15T23:42:33.850Z,11.1
2022-09-15T23:44:32.165Z,11.1
2022-09-15T23:46:34.511Z,11
2022-09-15T23:48:29.479Z,11
2022-09-15T23:50:31.554Z,10.9
2022-09-15T23:52:33.144Z,10.9
2022-09-15T23:54:29.675Z,10.9
2022-09-15T23:56:29.861Z,11
2022-09-15T23:58:31.690Z,11
